Time;durP1;ratioP1;P1;durP2;ratioP2;P2;SDS_P1;SDS_P2;PMS_P1;PMS_P2;Temp;Humidity;BMP_temperature;BMP_pressure;BME280_temperature;BME280_humidity;BME280_pressure;Samples;Min_cycle;Max_cycle;Signal;HPM_P1;HPM_P2
2023/11/06 00:00:40;;;;;;;;;;;;;;;10.16;100.00;98296.69;5018119;28;19975;-71
2023/11/06 00:03:07;;;;;;;;;;;;;;;10.14;100.00;98272.34;5031083;28;19925;-71
2023/11/06 00:05:36;;;;;;;;;;;;;;;10.16;100.00;98270.38;5034363;28;20028;-74
2023/11/06 00:08:05;;;;;;;;;;;;;;;10.13;100.00;98279.41;5029067;28;19975;-73
2023/11/06 00:10:32;;;;;;;;;;;;;;;10.16;100.00;98286.16;5035771;28;19971;-71
2023/11/06 00:13:00;;;;;;;;;;;;;;;10.19;100.00;98295.56;5034971;28;19968;-71
2023/11/06 00:15:27;;;;;;;;;;;;;;;10.25;100.00;98289.75;5026652;28;19925;-70
2023/11/06 00:17:55;;;;;;;;;;;;;;;10.17;100.00;98289.63;5026547;28;19929;-71
2023/11/06 00:20:22;;;;;;;;;;;;;;;10.13;100.00;98310.97;5029865;28;19933;-72
2023/11/06 00:22:49;;;;;;;;;;;;;;;10.13;100.00;98318.00;5028782;28;19953;-71
2023/11/06 00:25:16;;;;;;;;;;;;;;;10.02;100.00;98308.50;5029377;28;19983;-72
2023/11/06 00:27:44;;;;;;;;;;;;;;;10.10;100.00;98313.03;5035758;28;19932;-71
2023/11/06 00:30:11;;;;;;;;;;;;;;;10.13;100.00;98331.13;5029898;28;19929;-71
2023/11/06 00:32:39;;;;;;;;;;;;;;;10.14;100.00;98344.16;5029211;28;19967;-68
2023/11/06 00:35:06;;;;;;;;;;;;;;;10.17;100.00;98329.88;5030842;28;19936;-71
2023/11/06 00:37:33;;;;;;;;;;;;;;;10.21;100.00;98333.06;5042955;28;19965;-71
2023/11/06 00:40:04;;;;;;;;;;;;;;;10.23;100.00;98362.69;5054406;28;20023;-71
2023/11/06 00:42:31;;;;;;;;;;;;;;;10.15;100.00;98355.50;5033594;28;20002;-73
2023/11/06 00:44:58;;;;;;;;;;;;;;;10.19;100.00;98374.44;5034127;28;20015;-69
2023/11/06 00:47:25;;;;;;;;;;;;;;;10.17;100.00;98352.72;5026266;28;19925;-70
2023/11/06 00:49:52;;;;;;;;;;;;;;;10.14;100.00;98370.44;5032257;28;19971;-73
2023/11/06 00:52:19;;;;;;;;;;;;;;;10.13;100.00;98373.19;5037156;28;19986;-73
2023/11/06 00:54:47;;;;;;;;;;;;;;;10.12;100.00;98372.38;5034868;28;19959;-69
2023/11/06 00:57:14;;;;;;;;;;;;;;;10.13;100.00;98378.47;5032408;28;19968;-67
2023/11/06 00:59:41;;;;;;;;;;;;;;;10.15;100.00;98414.16;5011603;28;19991;-69
2023/11/06 01:02:08;;;;;;;;;;;;;;;10.11;100.00;98386.50;5027725;28;19971;-68
2023/11/06 01:04:35;;;;;;;;;;;;;;;10.14;100.00;98422.22;5026238;28;20568;-70
2023/11/06 01:07:02;;;;;;;;;;;;;;;10.13;100.00;98379.31;5041041;28;21427;-69
2023/11/06 01:09:30;;;;;;;;;;;;;;;10.21;100.00;98404.88;5012634;28;19932;-69
2023/11/06 01:11:57;;;;;;;;;;;;;;;10.18;100.00;98401.69;5031755;28;20360;-69
2023/11/06 01:14:24;;;;;;;;;;;;;;;10.17;100.00;98450.81;5035748;28;20449;-69
2023/11/06 01:16:53;;;;;;;;;;;;;;;10.21;100.00;98393.53;5026751;28;20022;-69
2023/11/06 01:19:20;;;;;;;;;;;;;;;10.17;100.00;98426.34;5028488;28;19929;-70
2023/11/06 01:21:47;;;;;;;;;;;;;;;10.19;100.00;98432.31;5033661;28;19979;-71
2023/11/06 01:24:14;;;;;;;;;;;;;;;10.18;100.00;98430.63;5002869;28;20003;-73
2023/11/06 01:26:42;;;;;;;;;;;;;;;10.10;100.00;98436.59;5028301;28;20028;-70
2023/11/06 01:29:11;;;;;;;;;;;;;;;10.12;100.00;98442.53;5035523;28;19960;-71
2023/11/06 01:31:38;;;;;;;;;;;;;;;10.14;100.00;98444.06;5017125;28;19976;-71
2023/11/06 01:34:06;;;;;;;;;;;;;;;10.15;100.00;98450.16;5040528;28;20385;-71
2023/11/06 01:36:33;;;;;;;;;;;;;;;10.14;100.00;98451.94;5029079;28;19937;-71
2023/11/06 01:39:00;;;;;;;;;;;;;;;10.14;100.00;98466.91;5014912;28;19961;-71
2023/11/06 01:41:27;;;;;;;;;;;;;;;10.13;100.00;98468.72;5042844;28;19964;-73
2023/11/06 01:43:56;;;;;;;;;;;;;;;10.20;100.00;98502.31;4999609;28;19953;-74
2023/11/06 01:46:23;;;;;;;;;;;;;;;10.18;100.00;98480.56;5034697;28;19940;-72
2023/11/06 01:48:50;;;;;;;;;;;;;;;10.19;99.75;98469.94;5034816;28;20388;-71
2023/11/06 01:51:17;;;;;;;;;;;;;;;10.14;100.00;98478.25;5026905;28;20409;-70
2023/11/06 01:53:44;;;;;;;;;;;;;;;10.19;99.40;98466.47;5000806;28;19968;-69
2023/11/06 01:56:12;;;;;;;;;;;;;;;10.13;99.85;98513.41;5026475;28;20308;-71
2023/11/06 01:58:39;;;;;;;;;;;;;;;10.17;99.03;98484.19;5011319;28;19944;-73
2023/11/06 02:01:08;;;;;;;;;;;;;;;10.16;98.52;98514.91;5044901;28;19982;-70
2023/11/06 02:03:35;;;;;;;;;;;;;;;10.20;98.82;98507.56;5022715;28;19947;-70
2023/11/06 02:06:03;;;;;;;;;;;;;;;10.22;98.60;98497.72;5025168;28;19933;-71
2023/11/06 02:08:32;;;;;;;;;;;;;;;10.12;98.56;98498.56;5025603;28;19940;-72
2023/11/06 02:11:03;;;;;;;;;;;;;;;10.23;98.65;98494.97;5017458;28;19928;-71
2023/11/06 02:13:30;;;;;;;;;;;;;;;10.23;98.22;98502.88;5013210;28;19933;-72
2023/11/06 02:15:59;;;;;;;;;;;;;;;10.22;97.35;98495.97;5029229;28;20365;-72
2023/11/06 02:18:26;;;;;;;;;;;;;;;10.26;96.56;98504.41;4997213;28;19925;-71
2023/11/06 02:20:55;;;;;;;;;;;;;;;10.27;97.34;98511.34;5014506;28;20007;-72
2023/11/06 02:23:26;;;;;;;;;;;;;;;10.23;96.73;98517.81;5014469;28;19937;-69
2023/11/06 02:25:53;;;;;;;;;;;;;;;10.22;96.57;98524.03;5032688;28;19975;-70
2023/11/06 02:28:20;;;;;;;;;;;;;;;10.27;96.01;98537.66;5027601;28;20431;-69
2023/11/06 02:30:52;;;;;;;;;;;;;;;10.27;95.53;98538.47;5035514;28;19932;-71
2023/11/06 02:33:19;;;;;;;;;;;;;;;10.25;94.92;98545.66;5031150;28;19936;-74
2023/11/06 02:35:47;;;;;;;;;;;;;;;10.29;94.94;98554.94;5023173;28;19960;-70
2023/11/06 02:38:14;;;;;;;;;;;;;;;10.26;94.80;98549.94;5031925;28;19960;-70
2023/11/06 02:40:41;;;;;;;;;;;;;;;10.33;95.05;98564.19;5020478;28;19965;-75
2023/11/06 02:43:09;;;;;;;;;;;;;;;10.33;94.33;98574.72;5029542;28;20712;-69
2023/11/06 02:45:36;;;;;;;;;;;;;;;10.31;94.13;98578.44;5031331;28;20014;-69
2023/11/06 02:48:03;;;;;;;;;;;;;;;10.32;94.12;98577.50;5030621;28;20044;-70
2023/11/06 02:50:31;;;;;;;;;;;;;;;10.38;94.62;98593.53;5030999;28;20024;-69
2023/11/06 02:52:59;;;;;;;;;;;;;;;10.32;94.41;98588.84;5031046;28;19976;-71
2023/11/06 02:55:26;;;;;;;;;;;;;;;10.28;94.29;98571.69;5019655;28;19960;-71
2023/11/06 02:57:53;;;;;;;;;;;;;;;10.28;93.42;98605.88;5048768;28;20020;-71
2023/11/06 03:00:20;;;;;;;;;;;;;;;10.30;92.96;98603.91;5038934;28;19929;-71
2023/11/06 03:02:48;;;;;;;;;;;;;;;10.33;92.84;98602.81;5004782;28;19925;-71
2023/11/06 03:05:16;;;;;;;;;;;;;;;10.34;93.29;98618.47;5032603;28;20379;-71
2023/11/06 03:07:44;;;;;;;;;;;;;;;10.25;92.52;98615.81;5023967;28;19957;-73
2023/11/06 03:10:11;;;;;;;;;;;;;;;10.28;93.13;98636.59;5036123;28;19964;-70
2023/11/06 03:12:38;;;;;;;;;;;;;;;10.19;92.48;98624.25;5030070;28;19933;-71
2023/11/06 03:15:06;;;;;;;;;;;;;;;10.17;93.69;98634.88;5035939;28;19968;-70
2023/11/06 03:17:33;;;;;;;;;;;;;;;10.11;93.55;98632.81;5042657;28;19980;-70
2023/11/06 03:20:01;;;;;;;;;;;;;;;10.09;93.67;98679.44;5038319;28;20015;-70
2023/11/06 03:22:28;;;;;;;;;;;;;;;10.06;94.05;98650.78;5002125;28;20494;-71
2023/11/06 03:24:56;;;;;;;;;;;;;;;9.98;94.20;98648.81;5040709;28;19924;-71
2023/11/06 03:27:23;;;;;;;;;;;;;;;9.98;94.42;98664.59;5034661;28;20402;-70
2023/11/06 03:29:50;;;;;;;;;;;;;;;9.92;95.08;98657.25;5035851;28;19925;-74
2023/11/06 03:32:18;;;;;;;;;;;;;;;9.91;95.11;98668.75;5007056;28;19925;-74
2023/11/06 03:34:46;;;;;;;;;;;;;;;9.89;95.33;98671.50;5018169;28;19925;-77
2023/11/06 03:37:14;;;;;;;;;;;;;;;9.87;95.46;98677.84;5022141;28;19994;-75
2023/11/06 03:39:41;;;;;;;;;;;;;;;9.92;94.99;98674.81;5032279;28;19925;-76
2023/11/06 03:42:08;;;;;;;;;;;;;;;9.88;95.54;98672.47;5032379;28;19972;-76
2023/11/06 03:44:36;;;;;;;;;;;;;;;9.84;96.09;98680.75;5032128;28;21085;-75
2023/11/06 03:47:06;;;;;;;;;;;;;;;9.79;96.20;98680.31;5005139;28;20020;-71
2023/11/06 03:49:33;;;;;;;;;;;;;;;9.77;96.11;98692.75;5049106;28;19976;-70
2023/11/06 03:52:00;;;;;;;;;;;;;;;9.76;95.66;98688.47;5036085;28;19972;-73
2023/11/06 03:54:27;;;;;;;;;;;;;;;9.76;95.71;98694.53;5039083;28;19932;-73
2023/11/06 03:56:54;;;;;;;;;;;;;;;9.73;96.00;98691.38;5039734;28;19925;-73
2023/11/06 03:59:22;;;;;;;;;;;;;;;9.71;96.26;98699.38;5032125;28;19933;-71
2023/11/06 04:01:49;;;;;;;;;;;;;;;9.66;96.59;98705.97;5032292;28;19933;-73
2023/11/06 04:04:17;;;;;;;;;;;;;;;9.59;96.82;98709.16;5037308;28;19925;-74
2023/11/06 04:06:44;;;;;;;;;;;;;;;9.57;97.11;98724.19;5031640;28;19929;-72
2023/11/06 04:09:12;;;;;;;;;;;;;;;9.55;96.70;98726.13;5045877;28;20932;-70
2023/11/06 04:11:40;;;;;;;;;;;;;;;9.56;96.84;98725.16;5016058;28;20010;-69
2023/11/06 04:14:07;;;;;;;;;;;;;;;9.51;97.47;98729.97;5032541;28;20515;-70
2023/11/06 04:16:34;;;;;;;;;;;;;;;9.48;97.55;98758.28;5032267;28;19961;-71
2023/11/06 04:19:01;;;;;;;;;;;;;;;9.47;96.98;98739.06;5017660;28;21028;-72
2023/11/06 04:21:28;;;;;;;;;;;;;;;9.49;96.82;98744.19;5031195;28;19925;-72
2023/11/06 04:23:55;;;;;;;;;;;;;;;9.44;97.02;98744.56;5033261;28;19933;-72
2023/11/06 04:26:22;;;;;;;;;;;;;;;9.40;97.87;98748.41;5038553;28;20026;-72
2023/11/06 04:28:49;;;;;;;;;;;;;;;9.40;97.85;98753.66;5022638;28;20006;-75
2023/11/06 04:31:17;;;;;;;;;;;;;;;9.35;98.27;98758.47;5031777;28;20468;-74
2023/11/06 04:33:44;;;;;;;;;;;;;;;9.34;98.65;98754.19;5030743;28;19959;-71
2023/11/06 04:36:11;;;;;;;;;;;;;;;9.30;99.32;98763.28;5029468;28;19972;-74
2023/11/06 04:38:38;;;;;;;;;;;;;;;9.20;100.00;98760.59;5033064;28;19925;-74
2023/11/06 04:41:05;;;;;;;;;;;;;;;9.15;100.00;98767.19;5010938;28;19932;-75
2023/11/06 04:43:32;;;;;;;;;;;;;;;9.08;100.00;98772.09;5027625;28;20000;-73
2023/11/06 04:45:59;;;;;;;;;;;;;;;9.07;100.00;98779.16;5031009;28;20047;-72
2023/11/06 04:48:26;;;;;;;;;;;;;;;9.07;100.00;98779.16;5012401;28;19956;-74
2023/11/06 04:50:54;;;;;;;;;;;;;;;9.06;100.00;98782.72;5027820;28;19944;-73
2023/11/06 04:53:21;;;;;;;;;;;;;;;9.00;100.00;98787.63;5000547;28;19971;-73
2023/11/06 04:55:48;;;;;;;;;;;;;;;8.97;100.00;98793.16;5032257;28;19968;-75
2023/11/06 04:58:15;;;;;;;;;;;;;;;8.92;100.00;98797.94;5031219;28;19964;-70
2023/11/06 05:00:43;;;;;;;;;;;;;;;8.93;100.00;98794.38;5015062;28;19925;-70
2023/11/06 05:03:10;;;;;;;;;;;;;;;8.88;100.00;98798.19;5029282;28;19955;-69
2023/11/06 05:05:38;;;;;;;;;;;;;;;8.93;100.00;98797.81;5025571;28;19933;-69
2023/11/06 05:08:05;;;;;;;;;;;;;;;8.98;100.00;98807.94;5012779;28;19982;-68
2023/11/06 05:10:33;;;;;;;;;;;;;;;8.97;100.00;98814.97;5025521;28;19929;-69
2023/11/06 05:13:00;;;;;;;;;;;;;;;9.00;100.00;98809.47;5030771;28;19925;-71
2023/11/06 05:15:27;;;;;;;;;;;;;;;8.92;100.00;98819.78;5036872;28;19960;-69
2023/11/06 05:17:55;;;;;;;;;;;;;;;8.95;100.00;98822.13;5030516;28;19929;-69
2023/11/06 05:20:22;;;;;;;;;;;;;;;8.94;100.00;98828.34;5032855;28;19967;-70
2023/11/06 05:22:50;;;;;;;;;;;;;;;8.97;100.00;98825.47;5031857;28;21694;-69
2023/11/06 05:25:17;;;;;;;;;;;;;;;8.96;100.00;98818.56;5030229;28;19957;-70
2023/11/06 05:27:44;;;;;;;;;;;;;;;8.96;100.00;98826.44;5028199;28;20018;-69
2023/11/06 05:30:12;;;;;;;;;;;;;;;8.95;100.00;98831.81;5024834;28;19925;-70
2023/11/06 05:32:39;;;;;;;;;;;;;;;8.98;100.00;98839.44;5015782;28;19926;-70
2023/11/06 05:35:08;;;;;;;;;;;;;;;9.01;100.00;98828.69;5027608;28;20506;-68
2023/11/06 05:37:35;;;;;;;;;;;;;;;9.00;100.00;98835.72;5023845;28;20043;-68
2023/11/06 05:40:03;;;;;;;;;;;;;;;9.04;100.00;98842.38;5032790;28;19925;-67
2023/11/06 05:42:30;;;;;;;;;;;;;;;9.07;100.00;98847.41;5029041;28;20002;-68
2023/11/06 05:44:57;;;;;;;;;;;;;;;9.10;100.00;98847.16;5029982;28;20035;-68
2023/11/06 05:47:24;;;;;;;;;;;;;;;9.11;100.00;98858.47;5013661;28;19933;-70
2023/11/06 05:49:51;;;;;;;;;;;;;;;9.14;100.00;98850.38;4993308;28;19930;-68
2023/11/06 05:52:18;;;;;;;;;;;;;;;9.16;100.00;98853.69;4996005;28;19995;-68
2023/11/06 05:54:46;;;;;;;;;;;;;;;9.12;100.00;98860.97;5030073;28;19975;-69
2023/11/06 05:57:13;;;;;;;;;;;;;;;9.15;100.00;98869.56;5005032;28;19975;-67
2023/11/06 05:59:40;;;;;;;;;;;;;;;9.17;100.00;98878.16;5023832;28;19999;-67
2023/11/06 06:02:11;;;;;;;;;;;;;;;9.15;100.00;98875.66;5022554;28;19925;-67
2023/11/06 06:04:41;;;;;;;;;;;;;;;9.17;100.00;98889.47;5023625;28;20447;-69
2023/11/06 06:07:09;;;;;;;;;;;;;;;9.23;100.00;98889.00;5023899;28;19968;-67
2023/11/06 06:09:37;;;;;;;;;;;;;;;9.20;100.00;98891.03;5011362;28;19932;-70
2023/11/06 06:12:04;;;;;;;;;;;;;;;9.27;100.00;98894.81;5026657;28;19997;-69
2023/11/06 06:14:31;;;;;;;;;;;;;;;9.30;100.00;98902.44;5028024;28;19987;-69
2023/11/06 06:16:58;;;;;;;;;;;;;;;9.33;100.00;98899.59;5028013;28;21252;-67
2023/11/06 06:19:25;;;;;;;;;;;;;;;9.36;100.00;98897.53;5021418;28;20044;-70
2023/11/06 06:21:52;;;;;;;;;;;;;;;9.41;100.00;98910.31;5007253;28;19969;-68
2023/11/06 06:24:19;;;;;;;;;;;;;;;9.43;100.00;98910.19;5024168;28;20099;-70
2023/11/06 06:26:47;;;;;;;;;;;;;;;9.41;100.00;98906.81;5014110;28;19933;-67
2023/11/06 06:29:14;;;;;;;;;;;;;;;9.46;100.00;98910.75;5029458;28;19959;-67
2023/11/06 06:31:41;;;;;;;;;;;;;;;9.51;100.00;98926.16;5019646;28;19956;-69
2023/11/06 06:34:08;;;;;;;;;;;;;;;9.52;100.00;98926.00;5025302;28;19964;-69
2023/11/06 06:36:35;;;;;;;;;;;;;;;9.54;100.00;98933.75;5024757;28;19979;-66
2023/11/06 06:39:05;;;;;;;;;;;;;;;9.59;99.88;98945.59;5006256;28;19964;-70
2023/11/06 06:41:32;;;;;;;;;;;;;;;9.64;99.20;98964.44;5027434;28;19926;-70
2023/11/06 06:43:59;;;;;;;;;;;;;;;9.71;98.73;98948.16;5011775;28;19964;-68
2023/11/06 06:46:26;;;;;;;;;;;;;;;9.78;99.19;98959.84;5020918;28;19933;-68
2023/11/06 06:48:55;;;;;;;;;;;;;;;9.83;98.45;98962.91;5026472;28;20011;-70
2023/11/06 06:51:22;;;;;;;;;;;;;;;9.84;98.60;98957.53;5041869;28;19929;-69
2023/11/06 06:53:51;;;;;;;;;;;;;;;9.89;98.54;98957.16;5027646;28;19932;-67
2023/11/06 06:56:19;;;;;;;;;;;;;;;9.88;98.44;98973.88;5013094;28;19939;-68
2023/11/06 06:58:46;;;;;;;;;;;;;;;9.87;98.12;98964.34;5040251;28;20030;-69
2023/11/06 07:01:15;;;;;;;;;;;;;;;9.96;98.33;98984.59;5009971;28;19956;-69
2023/11/06 07:03:42;;;;;;;;;;;;;;;9.90;97.95;98985.91;5011728;28;19950;-66
2023/11/06 07:06:14;;;;;;;;;;;;;;;10.00;98.18;98982.56;5025130;28;19975;-68
2023/11/06 07:08:42;;;;;;;;;;;;;;;9.95;98.38;98996.09;5021954;28;20014;-68
2023/11/06 07:11:09;;;;;;;;;;;;;;;9.95;98.70;98987.34;5012923;28;19991;-69
2023/11/06 07:13:36;;;;;;;;;;;;;;;10.07;98.77;98994.22;5025102;28;20371;-68
2023/11/06 07:16:04;;;;;;;;;;;;;;;10.04;98.43;98994.47;5011359;28;19955;-66
2023/11/06 07:18:31;;;;;;;;;;;;;;;10.08;98.09;99012.50;5028186;28;19979;-69
2023/11/06 07:20:58;;;;;;;;;;;;;;;10.13;97.95;99012.97;5025803;28;19968;-67
2023/11/06 07:23:25;;;;;;;;;;;;;;;10.23;97.32;98996.44;5025906;28;20537;-69
2023/11/06 07:25:52;;;;;;;;;;;;;;;10.11;97.48;99021.94;5040965;28;19956;-67
2023/11/06 07:28:19;;;;;;;;;;;;;;;10.10;97.78;99013.22;5025300;28;19987;-68
2023/11/06 07:30:47;;;;;;;;;;;;;;;10.13;97.12;99012.97;5043308;28;19966;-68
2023/11/06 07:33:14;;;;;;;;;;;;;;;10.20;97.21;99023.81;5032592;28;19999;-70
2023/11/06 07:35:41;;;;;;;;;;;;;;;10.33;96.95;99026.28;5029147;28;19968;-68
2023/11/06 07:38:09;;;;;;;;;;;;;;;10.34;96.47;99030.56;5028365;28;19968;-66
2023/11/06 07:40:37;;;;;;;;;;;;;;;10.37;95.79;99028.53;5038626;28;19964;-69
2023/11/06 07:43:04;;;;;;;;;;;;;;;10.47;94.81;99035.66;5031710;28;20392;-68
2023/11/06 07:45:31;;;;;;;;;;;;;;;10.43;95.75;99042.97;5028632;28;19932;-67
2023/11/06 07:48:05;;;;;;;;;;;;;;;10.44;95.92;99043.78;5029964;28;19972;-69
2023/11/06 07:50:33;;;;;;;;;;;;;;;10.30;96.75;99045.78;5028931;28;20391;-69
2023/11/06 07:53:00;;;;;;;;;;;;;;;10.48;95.98;99043.41;5039593;28;20357;-68
2023/11/06 07:55:27;;;;;;;;;;;;;;;10.54;95.37;99056.06;5034848;28;20491;-69
2023/11/06 07:57:54;;;;;;;;;;;;;;;10.68;94.49;99054.91;5013420;28;20367;-69
2023/11/06 08:00:22;;;;;;;;;;;;;;;10.65;94.10;99049.88;5031893;28;19999;-68
2023/11/06 08:03:09;;;;;;;;;;;;;;;10.81;93.45;99094.19;5027217;28;19976;-69
2023/11/06 08:05:37;;;;;;;;;;;;;;;10.80;93.26;99067.00;5025749;28;19929;-67
2023/11/06 08:08:04;;;;;;;;;;;;;;;10.80;92.42;99058.28;5030113;28;20012;-68
2023/11/06 08:10:34;;;;;;;;;;;;;;;10.90;92.17;99083.72;5031781;28;19979;-68
2023/11/06 08:13:01;;;;;;;;;;;;;;;10.81;93.39;99073.97;5031622;28;20390;-67
2023/11/06 08:15:28;;;;;;;;;;;;;;;10.78;92.67;99078.66;5028561;28;19925;-67
2023/11/06 08:17:55;;;;;;;;;;;;;;;10.95;92.87;99080.69;5028399;28;20007;-68
2023/11/06 08:20:23;;;;;;;;;;;;;;;11.10;91.70;99087.28;5028898;28;19956;-67
2023/11/06 08:22:50;;;;;;;;;;;;;;;11.23;90.84;99091.50;5028079;28;19971;-68
2023/11/06 08:25:19;;;;;;;;;;;;;;;11.38;90.87;99088.34;5028203;28;19959;-68
2023/11/06 08:27:47;;;;;;;;;;;;;;;11.43;89.67;99079.22;5028946;28;19929;-67
2023/11/06 08:30:14;;;;;;;;;;;;;;;11.44;89.32;99088.78;5031874;28;19962;-68
2023/11/06 08:32:41;;;;;;;;;;;;;;;11.51;88.89;99100.47;5028940;28;19960;-69
2023/11/06 08:35:08;;;;;;;;;;;;;;;11.54;88.63;99095.78;5044045;28;19983;-69
2023/11/06 08:37:35;;;;;;;;;;;;;;;11.62;88.65;99126.75;5031230;28;19926;-70
2023/11/06 08:40:03;;;;;;;;;;;;;;;11.65;88.19;99122.00;5031366;28;20079;-69
2023/11/06 08:42:30;;;;;;;;;;;;;;;11.73;87.94;99128.44;5042909;28;19925;-69
2023/11/06 08:44:57;;;;;;;;;;;;;;;11.74;87.42;99130.94;5028125;28;19975;-70
2023/11/06 08:47:25;;;;;;;;;;;;;;;11.58;88.38;99135.88;5031908;28;20407;-70
2023/11/06 08:49:52;;;;;;;;;;;;;;;11.61;88.51;99148.78;5027025;28;20462;-67
2023/11/06 08:52:20;;;;;;;;;;;;;;;11.43;89.43;99164.38;5026598;28;19925;-69
2023/11/06 08:54:47;;;;;;;;;;;;;;;11.50;89.57;99162.06;5029549;28;20434;-69
2023/11/06 08:57:14;;;;;;;;;;;;;;;11.52;89.94;99170.66;5032496;28;20355;-68
2023/11/06 08:59:41;;;;;;;;;;;;;;;11.42;90.20;99165.34;5044657;28;19957;-68
2023/11/06 09:02:09;;;;;;;;;;;;;;;11.32;91.07;99162.66;5034291;28;20076;-69
2023/11/06 09:04:40;;;;;;;;;;;;;;;11.48;90.05;99170.06;5023750;28;19965;-68
2023/11/06 09:07:09;;;;;;;;;;;;;;;11.39;90.24;99173.50;5024439;28;19929;-70
2023/11/06 09:09:36;;;;;;;;;;;;;;;11.57;89.65;99179.00;5028624;28;20414;-69
2023/11/06 09:12:03;;;;;;;;;;;;;;;11.44;90.16;99175.75;5032520;28;19972;-70
2023/11/06 09:14:30;;;;;;;;;;;;;;;11.34;90.43;99180.97;5026182;28;20025;-69
2023/11/06 09:16:57;;;;;;;;;;;;;;;11.16;91.25;99221.06;5030815;28;19972;-69
2023/11/06 09:19:24;;;;;;;;;;;;;;;11.17;91.59;99203.50;5028112;28;20012;-69
2023/11/06 09:21:51;;;;;;;;;;;;;;;11.12;91.37;99203.00;5028302;28;19929;-69
2023/11/06 09:24:18;;;;;;;;;;;;;;;11.21;91.98;99207.50;5042272;28;19982;-69
2023/11/06 09:26:46;;;;;;;;;;;;;;;11.34;91.51;99199.41;5034857;28;19964;-68
2023/11/06 09:29:13;;;;;;;;;;;;;;;11.26;91.40;99210.63;5028069;28;20361;-70
2023/11/06 09:31:43;;;;;;;;;;;;;;;11.17;91.22;99216.66;5027740;28;19925;-68
2023/11/06 09:34:10;;;;;;;;;;;;;;;11.36;91.30;99218.56;5027236;28;20360;-68
2023/11/06 09:36:37;;;;;;;;;;;;;;;11.59;90.80;99225.34;5044567;28;20012;-69
2023/11/06 09:39:06;;;;;;;;;;;;;;;11.54;90.13;99235.47;5026872;28;19933;-69
2023/11/06 09:41:34;;;;;;;;;;;;;;;11.55;89.42;99238.94;4999926;28;20498;-70
2023/11/06 09:44:01;;;;;;;;;;;;;;;11.35;90.48;99248.53;5011904;28;20264;-68
2023/11/06 09:46:28;;;;;;;;;;;;;;;11.26;90.34;99238.75;5027636;28;19983;-68
2023/11/06 09:48:55;;;;;;;;;;;;;;;11.38;90.59;99253.53;5026508;28;19971;-68
2023/11/06 09:51:23;;;;;;;;;;;;;;;11.36;91.07;99239.66;5026851;28;20371;-69
2023/11/06 09:53:50;;;;;;;;;;;;;;;11.34;91.18;99252.94;5011009;28;19961;-70
2023/11/06 09:56:19;;;;;;;;;;;;;;;11.36;89.74;99252.81;5031923;28;20096;-70
2023/11/06 09:58:46;;;;;;;;;;;;;;;11.40;90.39;99246.34;5011282;28;19933;-67
2023/11/06 10:01:13;;;;;;;;;;;;;;;11.36;90.15;99256.28;5019202;28;19986;-67
2023/11/06 10:03:40;;;;;;;;;;;;;;;11.43;89.96;99261.03;5004394;28;19925;-69
2023/11/06 10:06:11;;;;;;;;;;;;;;;11.53;89.90;99262.78;5017239;28;19929;-68
2023/11/06 10:08:38;;;;;;;;;;;;;;;11.67;88.70;99272.16;4995571;28;19947;-68
2023/11/06 10:11:07;;;;;;;;;;;;;;;11.83;88.54;99271.69;5021638;28;19965;-66
2023/11/06 10:13:54;;;;;;;;;;;;;;;11.80;87.45;99269.31;5017243;28;19936;-69
2023/11/06 10:16:24;;;;;;;;;;;;;;;12.04;86.23;99284.84;4998458;28;19933;-67
2023/11/06 10:19:07;;;;;;;;;;;;;;;12.09;85.29;99282.66;5005417;28;20470;-67
2023/11/06 10:21:35;;;;;;;;;;;;;;;12.18;84.34;99297.69;5018511;28;19969;-67
2023/11/06 10:24:03;;;;;;;;;;;;;;;12.47;82.84;99284.56;5024858;28;20463;-68
2023/11/06 10:26:31;;;;;;;;;;;;;;;12.98;81.51;99344.31;5013421;28;20006;-68
2023/11/06 10:29:14;;;;;;;;;;;;;;;12.77;81.40;99298.69;5031433;28;20012;-69
2023/11/06 10:31:42;;;;;;;;;;;;;;;12.58;81.49;99294.19;5033228;28;19925;-67
2023/11/06 10:34:21;;;;;;;;;;;;;;;12.46;81.68;99301.38;5019753;28;19934;-68
2023/11/06 10:36:58;;;;;;;;;;;;;;;12.54;80.96;99308.63;5016088;28;20126;-68
2023/11/06 10:39:25;;;;;;;;;;;;;;;12.22;81.34;99309.66;5026957;28;19956;-67
2023/11/06 10:42:02;;;;;;;;;;;;;;;12.12;82.11;99309.59;5031042;28;19976;-68
2023/11/06 10:44:34;;;;;;;;;;;;;;;12.20;82.02;99308.09;5024109;28;19972;-68
2023/11/06 10:47:05;;;;;;;;;;;;;;;12.11;82.21;99313.22;5026794;28;20347;-69
2023/11/06 10:49:34;;;;;;;;;;;;;;;12.01;82.51;99322.03;5027137;28;20564;-68
2023/11/06 10:52:02;;;;;;;;;;;;;;;12.09;82.43;99323.06;5025747;28;19966;-67
2023/11/06 10:54:30;;;;;;;;;;;;;;;11.98;82.22;99332.84;5042837;28;19925;-69
2023/11/06 10:56:58;;;;;;;;;;;;;;;11.88;82.60;99322.25;5037373;28;20011;-69
2023/11/06 10:59:25;;;;;;;;;;;;;;;11.82;82.57;99328.88;5024618;28;19969;-69
2023/11/06 11:01:59;;;;;;;;;;;;;;;12.01;82.17;99343.97;5016357;28;19925;-69
2023/11/06 11:04:28;;;;;;;;;;;;;;;12.10;80.06;99342.34;5022403;28;19979;-69
2023/11/06 11:06:55;;;;;;;;;;;;;;;12.27;79.73;99341.75;5009694;28;20024;-67
2023/11/06 11:09:22;;;;;;;;;;;;;;;12.57;78.30;99342.69;5043660;28;19965;-68
2023/11/06 11:11:50;;;;;;;;;;;;;;;13.18;76.54;99351.28;5025736;28;20002;-68
2023/11/06 11:14:18;;;;;;;;;;;;;;;13.41;74.70;99345.75;5000068;28;20012;-69
2023/11/06 11:16:45;;;;;;;;;;;;;;;13.40;72.65;99355.47;5033066;28;19929;-69
2023/11/06 11:19:32;;;;;;;;;;;;;;;13.08;74.18;99349.59;5013081;28;19947;-68
2023/11/06 11:22:06;;;;;;;;;;;;;;;13.30;72.94;99352.00;5046613;28;20037;-68
2023/11/06 11:24:40;;;;;;;;;;;;;;;13.32;72.22;99362.44;5031441;28;20012;-69
2023/11/06 11:27:26;;;;;;;;;;;;;;;13.27;72.24;99354.09;5021741;28;19965;-69
2023/11/06 11:29:53;;;;;;;;;;;;;;;13.66;70.20;99357.56;5024094;28;19983;-69
2023/11/06 11:32:21;;;;;;;;;;;;;;;13.77;69.11;99373.28;5032297;28;19964;-68
2023/11/06 11:34:48;;;;;;;;;;;;;;;13.53;70.24;99364.94;5014294;28;20019;-69
2023/11/06 11:37:30;;;;;;;;;;;;;;;13.55;70.01;99371.75;5027575;28;19956;-69
2023/11/06 11:39:59;;;;;;;;;;;;;;;14.12;68.18;99371.81;5031811;28;20277;-68
2023/11/06 11:42:27;;;;;;;;;;;;;;;13.48;67.13;99373.31;5019826;28;19925;-69
2023/11/06 11:44:58;;;;;;;;;;;;;;;14.13;64.85;99382.25;5023981;28;19949;-69
2023/11/06 11:47:28;;;;;;;;;;;;;;;14.95;61.94;99393.94;5030988;28;20020;-68
2023/11/06 11:49:55;;;;;;;;;;;;;;;15.19;61.43;99386.25;5045530;28;19925;-68
2023/11/06 11:52:23;;;;;;;;;;;;;;;15.93;58.19;99405.50;5020676;28;20027;-68
2023/11/06 11:54:50;;;;;;;;;;;;;;;14.84;60.64;99389.66;5018711;28;20179;-69
2023/11/06 11:57:17;;;;;;;;;;;;;;;16.92;54.75;99394.44;5013602;28;20422;-68
2023/11/06 11:59:52;;;;;;;;;;;;;;;18.67;50.97;99398.44;5031164;28;20015;-69
2023/11/06 12:02:26;;;;;;;;;;;;;;;17.86;50.30;99394.13;5014588;28;19976;-67
2023/11/06 12:04:57;;;;;;;;;;;;;;;18.55;49.14;99402.50;5028684;28;20015;-66
2023/11/06 12:07:28;;;;;;;;;;;;;;;17.80;50.18;99413.44;5027901;28;19964;-69
2023/11/06 12:09:55;;;;;;;;;;;;;;;18.30;49.93;99430.22;5029102;28;19925;-68
2023/11/06 12:12:23;;;;;;;;;;;;;;;15.76;56.17;99417.81;5029312;28;19964;-69
2023/11/06 12:14:50;;;;;;;;;;;;;;;14.14;60.57;99422.81;5033278;28;20300;-69
2023/11/06 12:17:27;;;;;;;;;;;;;;;13.55;63.56;99463.47;5027305;28;19952;-69
2023/11/06 12:19:55;;;;;;;;;;;;;;;13.25;65.77;99430.88;5042696;28;19959;-67
2023/11/06 12:22:23;;;;;;;;;;;;;;;13.06;66.67;99439.59;5027502;28;20047;-68
2023/11/06 12:24:50;;;;;;;;;;;;;;;12.77;67.95;99444.75;5013281;28;20021;-68
2023/11/06 12:27:18;;;;;;;;;;;;;;;12.81;68.83;99425.03;5011486;28;21317;-69
2023/11/06 12:29:45;;;;;;;;;;;;;;;12.77;69.50;99428.91;5029768;28;19967;-67
2023/11/06 12:32:20;;;;;;;;;;;;;;;12.62;70.27;99428.44;5040336;28;19990;-68
2023/11/06 12:34:48;;;;;;;;;;;;;;;12.48;71.21;99422.69;5025116;28;19925;-69
2023/11/06 12:37:16;;;;;;;;;;;;;;;12.55;71.71;99434.38;5013189;28;20647;-69
2023/11/06 12:39:44;;;;;;;;;;;;;;;12.57;71.68;99435.09;5028595;28;19956;-68
2023/11/06 12:42:11;;;;;;;;;;;;;;;12.40;72.95;99439.16;5027953;28;20327;-67
2023/11/06 12:44:39;;;;;;;;;;;;;;;12.38;73.30;99444.59;5024992;28;19957;-68
2023/11/06 12:47:09;;;;;;;;;;;;;;;12.38;73.94;99446.38;5001835;28;20019;-65
2023/11/06 12:49:48;;;;;;;;;;;;;;;12.52;73.67;99439.91;5029756;28;19968;-66
2023/11/06 12:52:17;;;;;;;;;;;;;;;12.32;74.26;99452.19;5030022;28;20044;-66